owebmoney.ru alexa rank chart, owebmoney.ru alexa rank daily changes

owebmoney.ru alexa rank chart, owebmoney.ru alexa rank daily changes

owebmoney.ru
Actual rank:
532 707

RANK HISTORY

Date Rank Diff
2017/08/21 532 707 +20 977
2017/08/20 511 730 +5 825
2017/08/19 505 905 -4 333
2017/08/18 510 238 +1 108
2017/08/17 509 130 +3 359
2017/08/16 505 771 +23 846
2017/08/15 481 925 +13 302
2017/08/14 468 623 +3 453
2017/08/13 465 170 +8 898
2017/08/12 456 272 -2 170
2017/08/11 458 442 -18 848
2017/08/10 477 290 -16 682
2017/08/09 493 972 +7 047
2017/08/08 486 925 +2 655
2017/08/07 484 270 -7
2017/08/06 484 277 -16 569
2017/08/05 500 846 -1 869
2017/08/04 502 715 -2 428
2017/08/03 505 143 -12 648
2017/08/02 517 791 -7 322
2017/08/01 525 113 +5 144
2017/07/31 519 969 +2 197
2017/07/30 517 772 -335
2017/07/29 518 107 -13 728
2017/07/28 531 835 -22 259
2017/07/27 554 094 -2 858
2017/07/26 556 952 -13 215
2017/07/25 570 167 -4 749
2017/07/24 574 916 -4 224
2017/07/23 579 140 +3 698
2017/07/22 575 442 +35 581
2017/07/21 539 861 -30 517
2017/07/20 570 378 -10 901
2017/07/19 581 279 +19 755
2017/07/18 561 524 +1 197
2017/07/17 560 327 +4 240
2017/07/16 556 087 -47 260
2017/07/15 603 347 -23 916
2017/07/14 627 263 -10 804
2017/07/13 638 067 -32 160
2017/07/12 670 227 +22 082
2017/07/11 648 145 -18 233
2017/07/10 666 378 -7 240
2017/07/09 673 618 -29 451
2017/07/08 703 069 -13 394
2017/07/07 716 463 -9 675
2017/07/06 726 138 +220
2017/07/05 725 918 +60 527
2017/07/04 665 391 +9 245
2017/07/03 656 146 -26
2017/07/02 656 172 +2 295
2017/07/01 653 877 -54 651
2017/06/30 708 528 +5 195
2017/06/29 703 333 +92 913
2017/06/28 610 420 +677
2017/06/27 609 743 -141
2017/06/26 609 884 -1 681
2017/06/25 611 565 +14 726
2017/06/24 596 839 -566
2017/06/23 597 405 -4 115
2017/06/22 601 520

WIDGET FOR YOUR SITE

DOMAINS WITH THE NEAREST RANK

Domain Rank
bdsmsite.ru 532 702
videosxx.club 532 703
totalexcellium2017.com 532 704
devnot.com 532 705
loding.fr 532 706
owebmoney.ru 532 707
greatestleaders.org 532 708
moneypak.com 532 709
vmms.vn 532 710
speedway.org 532 711
7up.com 532 712

DOMAINS WITH THE NEAREST RANK BY TLD .ru

Domain Rank
japshop.ru 532 590
interesssport.ru 532 611
trailhead.ru 532 668
novosib-room.ru 532 696
bdsmsite.ru 532 702
owebmoney.ru 532 707
grandcam.ru 532 713
rphomey.ru 532 738
hr-academy.ru 532 742
modssamp.ru 532 762
pervoiskatel.ru 532 806